createdAt,value
2024-02-09T00:02:25.919Z,96249.69
2024-02-09T00:05:18.559Z,96248.28
2024-02-09T00:08:09.671Z,96243.00
2024-02-09T00:11:00.526Z,96243.00
2024-02-09T00:13:51.288Z,96244.75
2024-02-09T00:16:42.023Z,96243.00
2024-02-09T00:19:33.278Z,96247.88
2024-02-09T00:22:24.102Z,96231.97
2024-02-09T00:25:14.876Z,96244.38
2024-02-09T00:28:07.019Z,96230.03
2024-02-09T00:30:57.823Z,96234.31
2024-02-09T00:33:48.606Z,96237.09
2024-02-09T00:36:39.393Z,96238.50
2024-02-09T00:39:34.794Z,96236.34
2024-02-09T00:42:25.665Z,96236.97
2024-02-09T00:45:16.483Z,96232.84
2024-02-09T00:48:08.375Z,96230.06
2024-02-09T00:50:59.312Z,96229.88
2024-02-09T00:53:50.221Z,96216.69
2024-02-09T00:56:42.630Z,96218.03
2024-02-09T00:59:34.841Z,96224.38
2024-02-09T01:02:27.218Z,96219.03
2024-02-09T01:05:20.026Z,96214.91
2024-02-09T01:08:10.933Z,96214.31
2024-02-09T01:11:01.624Z,96215.09
2024-02-09T01:14:10.706Z,96217.09
2024-02-09T01:17:20.136Z,96221.84
2024-02-09T01:20:30.160Z,96221.28
2024-02-09T01:23:39.619Z,96223.25
2024-02-09T01:26:49.075Z,96221.28
2024-02-09T01:29:58.445Z,96214.16
2024-02-09T01:33:07.946Z,96210.03
2024-02-09T01:36:17.337Z,96206.47
2024-02-09T01:39:26.669Z,96208.25
2024-02-09T01:42:35.891Z,96205.28
2024-02-09T01:45:45.321Z,96200.56
2024-02-09T01:48:55.441Z,96192.28
2024-02-09T01:52:05.074Z,96195.47
2024-02-09T01:55:14.625Z,96200.56
2024-02-09T01:58:26.889Z,96190.75
2024-02-09T02:01:36.500Z,96189.41
2024-02-09T02:04:46.240Z,96186.03
2024-02-09T02:07:56.321Z,96182.88
2024-02-09T02:11:05.723Z,96181.09
2024-02-09T02:14:15.274Z,96176.16
2024-02-09T02:17:24.685Z,96177.16
2024-02-09T02:20:34.188Z,96167.53
2024-02-09T02:23:48.525Z,96173.84
2024-02-09T02:26:58.118Z,96167.53
2024-02-09T02:30:07.306Z,96165.59
2024-02-09T02:33:16.777Z,96163.03
2024-02-09T02:36:27.444Z,96159.91
2024-02-09T02:39:36.790Z,96160.88
2024-02-09T02:42:27.460Z,96162.88
2024-02-09T02:45:18.354Z,96156.59
2024-02-09T02:48:27.760Z,96151.88
2024-02-09T02:51:37.181Z,96150.69
2024-02-09T02:54:46.584Z,96154.03
2024-02-09T02:57:56.560Z,96158.75
2024-02-09T03:01:05.794Z,96149.09
2024-02-09T03:04:15.767Z,96135.53
2024-02-09T03:07:32.317Z,96146.97
2024-02-09T03:10:18.063Z,96150.72
2024-02-09T03:13:08.844Z,96150.72
2024-02-09T03:15:59.567Z,96159.16
2024-02-09T03:18:50.434Z,96143.63
2024-02-09T03:21:41.985Z,96146.97
2024-02-09T03:24:32.819Z,96151.47
2024-02-09T03:27:23.497Z,96151.63
2024-02-09T03:30:18.291Z,96143.19
2024-02-09T03:33:09.104Z,96148.06
2024-02-09T03:35:59.989Z,96153.78
2024-02-09T03:38:50.844Z,96143.56
2024-02-09T03:41:41.581Z,96149.44
2024-02-09T03:44:32.281Z,96159.47
2024-02-09T03:47:28.140Z,96151.56
2024-02-09T03:50:19.125Z,96141.91
2024-02-09T03:53:11.949Z,96142.47
2024-02-09T03:56:03.059Z,96138.91
2024-02-09T03:58:53.780Z,96146.19
2024-02-09T04:01:44.632Z,96147.13
2024-02-09T04:04:35.511Z,96147.94
2024-02-09T04:07:26.373Z,96140.63
2024-02-09T04:10:33.914Z,96139.66
2024-02-09T04:13:27.885Z,96143.16
2024-02-09T04:16:20.649Z,96140.41
2024-02-09T04:19:11.513Z,96137.25
2024-02-09T04:22:02.453Z,96136.63
2024-02-09T04:24:53.234Z,96128.75
2024-02-09T04:27:45.627Z,96123.63
2024-02-09T04:30:36.512Z,96127.53
2024-02-09T04:33:27.270Z,96129.09
2024-02-09T04:36:18.670Z,96123.97
2024-02-09T04:39:11.476Z,96128.31
2024-02-09T04:42:02.282Z,96125.75
2024-02-09T04:44:52.999Z,96123.19
2024-02-09T04:47:43.786Z,96126.13
2024-02-09T04:50:34.539Z,96126.50
2024-02-09T04:53:25.229Z,96124.28
2024-02-09T04:56:27.889Z,96115.84
2024-02-09T04:59:19.185Z,96119.38
2024-02-09T05:02:12.383Z,96109.94
2024-02-09T05:05:03.790Z,96102.81
2024-02-09T05:07:54.781Z,96103.56
2024-02-09T05:10:47.997Z,96105.94
2024-02-09T05:13:38.887Z,96108.50
2024-02-09T05:16:29.731Z,96103.38
2024-02-09T05:19:20.546Z,96115.41
2024-02-09T05:22:11.424Z,96110.28
2024-02-09T05:25:04.032Z,96106.38
2024-02-09T05:27:55.230Z,96101.47
2024-02-09T05:30:46.031Z,96100.09
2024-02-09T05:33:36.893Z,96104.03
2024-02-09T05:36:29.713Z,96105.78
2024-02-09T05:39:20.964Z,96105.78
2024-02-09T05:42:11.811Z,96102.25
2024-02-09T05:45:06.750Z,96093.97
2024-02-09T05:47:57.880Z,96103.84
2024-02-09T05:50:50.162Z,96105.63
2024-02-09T05:53:42.200Z,96100.88
2024-02-09T05:56:32.910Z,96100.31
2024-02-09T05:59:23.830Z,96101.09
2024-02-09T06:02:14.576Z,96100.31
2024-02-09T06:05:06.001Z,96094.81
2024-02-09T06:07:56.760Z,96098.34
2024-02-09T06:10:49.792Z,96103.22
2024-02-09T06:13:46.565Z,96094.72
2024-02-09T06:16:37.659Z,96091.91
2024-02-09T06:19:28.569Z,96091.13
2024-02-09T06:22:19.377Z,96095.44
2024-02-09T06:25:10.121Z,96097.50
2024-02-09T06:28:04.342Z,96097.88
2024-02-09T06:30:56.940Z,96085.69
2024-02-09T06:33:51.646Z,96108.34
2024-02-09T06:36:43.636Z,96109.06
2024-02-09T06:39:34.608Z,96116.31
2024-02-09T06:42:25.270Z,96109.59
2024-02-09T06:45:18.094Z,96115.63
2024-02-09T06:48:09.024Z,96115.13
2024-02-09T06:51:00.201Z,96114.53
2024-02-09T06:53:52.493Z,96117.59
2024-02-09T06:56:43.437Z,96111.59
2024-02-09T06:59:34.997Z,96117.31
2024-02-09T07:02:25.912Z,96119.00
2024-02-09T07:05:20.989Z,96119.00
2024-02-09T07:08:12.453Z,96113.47
2024-02-09T07:11:06.900Z,96116.94
2024-02-09T07:13:57.599Z,96119.22
2024-02-09T07:16:48.794Z,96112.22
2024-02-09T07:19:39.607Z,96115.75
2024-02-09T07:22:31.718Z,96117.22
2024-02-09T07:25:22.551Z,96117.13
2024-02-09T07:28:14.716Z,96119.69
2024-02-09T07:31:05.623Z,96122.19
2024-02-09T07:33:56.862Z,96127.44
2024-02-09T07:36:47.684Z,96137.84
2024-02-09T07:39:38.582Z,96133.06
2024-02-09T07:42:29.403Z,96133.41
2024-02-09T07:45:21.715Z,96133.34
2024-02-09T07:48:12.554Z,96128.09
2024-02-09T07:51:03.796Z,96133.59
2024-02-09T07:53:54.679Z,96127.78
2024-02-09T07:56:46.594Z,96138.41
2024-02-09T07:59:37.282Z,96134.75
2024-02-09T08:02:32.137Z,96123.19
2024-02-09T08:05:22.959Z,96137.75
2024-02-09T08:08:13.994Z,96130.28
2024-02-09T08:11:04.853Z,96132.75
2024-02-09T08:13:56.399Z,96134.78
2024-02-09T08:16:47.689Z,96136.13
2024-02-09T08:19:38.654Z,96127.66
2024-02-09T08:22:32.391Z,96127.41
2024-02-09T08:25:23.273Z,96125.63
2024-02-09T08:28:14.205Z,96136.91
2024-02-09T08:31:07.343Z,96130.22
2024-02-09T08:33:58.657Z,96125.81
2024-02-09T08:36:50.932Z,96128.91
2024-02-09T08:39:45.103Z,96132.38
2024-02-09T08:42:37.056Z,96135.31
2024-02-09T08:45:28.598Z,96137.81
2024-02-09T08:48:20.625Z,96128.22
2024-02-09T08:51:11.647Z,96127.97
2024-02-09T08:54:02.428Z,96122.25
2024-02-09T08:56:53.192Z,96121.72
2024-02-09T08:59:43.985Z,96109.78
2024-02-09T09:02:34.755Z,96113.75
2024-02-09T09:05:26.772Z,96110.22
2024-02-09T09:08:17.531Z,96105.44
2024-02-09T09:11:08.232Z,96107.34
2024-02-09T09:13:58.949Z,96105.84
2024-02-09T09:16:50.406Z,96111.38
2024-02-09T09:19:42.405Z,96114.78
2024-02-09T09:22:33.320Z,96117.69
2024-02-09T09:25:24.106Z,96115.41
2024-02-09T09:28:18.788Z,96120.09
2024-02-09T09:31:09.670Z,96105.44
2024-02-09T09:34:00.858Z,96100.34
2024-02-09T09:36:51.695Z,96097.59
2024-02-09T09:39:42.432Z,96095.84
2024-02-09T09:42:33.157Z,96091.06
2024-02-09T09:45:24.311Z,96085.25
2024-02-09T09:48:16.702Z,96084.03
2024-02-09T09:51:07.568Z,96091.88
2024-02-09T09:53:58.917Z,96092.78
2024-02-09T09:56:50.642Z,96088.50
2024-02-09T09:59:41.936Z,96083.72
2024-02-09T10:02:33.252Z,96079.16
2024-02-09T10:05:24.463Z,96087.22
2024-02-09T10:08:15.464Z,96083.91
2024-02-09T10:11:09.616Z,96087.63
2024-02-09T10:14:00.437Z,96069.03
2024-02-09T10:16:51.266Z,96066.72
2024-02-09T10:19:43.940Z,96059.50
2024-02-09T10:22:34.711Z,96061.06
2024-02-09T10:25:25.515Z,96065.25
2024-02-09T10:28:16.433Z,96066.06
2024-02-09T10:31:07.600Z,96062.97
2024-02-09T10:33:58.707Z,96059.91
2024-02-09T10:36:49.704Z,96041.78
2024-02-09T10:39:40.942Z,96045.66
2024-02-09T10:42:33.061Z,96043.91
2024-02-09T10:45:27.514Z,96042.69
2024-02-09T10:48:22.992Z,96041.69
2024-02-09T10:51:19.220Z,96034.28
2024-02-09T10:54:25.096Z,96037.44
2024-02-09T10:57:16.099Z,96035.13
2024-02-09T11:00:11.475Z,96034.66
2024-02-09T11:03:02.569Z,96032.59
2024-02-09T11:05:53.919Z,96020.19
2024-02-09T11:08:45.862Z,96030.06
2024-02-09T11:11:39.491Z,96023.88
2024-02-09T11:14:31.970Z,96009.91
2024-02-09T11:17:22.908Z,96007.56
2024-02-09T11:20:15.206Z,96006.81
2024-02-09T11:23:06.361Z,96003.19
2024-02-09T11:26:01.370Z,95996.97
2024-02-09T11:28:52.807Z,95998.00
2024-02-09T11:31:53.660Z,95992.81
2024-02-09T11:34:49.375Z,95991.00
2024-02-09T11:37:46.829Z,95995.69
2024-02-09T11:40:37.826Z,95984.28
2024-02-09T11:43:30.902Z,95996.44
2024-02-09T11:46:22.095Z,95986.34
2024-02-09T11:49:13.691Z,95980.63
2024-02-09T11:52:07.675Z,95985.06
2024-02-09T11:55:02.986Z,95978.03
2024-02-09T11:57:53.874Z,95971.28
2024-02-09T12:00:44.979Z,95955.94
2024-02-09T12:03:36.005Z,95963.72
2024-02-09T12:06:28.614Z,95956.19
2024-02-09T12:09:19.317Z,95955.44
2024-02-09T12:12:10.957Z,95949.75
2024-02-09T12:15:02.433Z,95951.28
2024-02-09T12:17:53.328Z,95955.94
2024-02-09T12:20:44.670Z,95952.84
2024-02-09T12:23:35.583Z,95962.69
2024-02-09T12:26:28.881Z,95968.41
2024-02-09T12:29:20.752Z,95955.13
2024-02-09T12:32:12.182Z,95972.47
2024-02-09T12:35:04.028Z,95962.84
2024-02-09T12:37:57.582Z,95961.53
2024-02-09T12:40:49.405Z,95956.56
2024-02-09T12:43:40.310Z,95959.41
2024-02-09T12:46:31.722Z,95960.94
2024-02-09T12:49:23.339Z,95962.78
2024-02-09T12:52:15.811Z,95957.31
2024-02-09T12:55:09.181Z,95963.81
2024-02-09T12:58:00.732Z,95959.41
2024-02-09T13:00:54.032Z,95956.78
2024-02-09T13:03:45.378Z,95956.22
2024-02-09T13:06:36.187Z,95963.75
2024-02-09T13:09:27.421Z,95963.00
2024-02-09T13:12:18.325Z,95971.59
2024-02-09T13:15:11.498Z,95968.50
2024-02-09T13:18:03.312Z,95963.84
2024-02-09T13:20:54.546Z,95962.78
2024-02-09T13:23:46.235Z,95956.81
2024-02-09T13:26:37.894Z,95954.72
2024-02-09T13:29:28.651Z,95958.38
2024-02-09T13:32:19.431Z,95957.59
2024-02-09T13:35:14.596Z,95957.88
2024-02-09T13:38:05.342Z,95958.66
2024-02-09T13:40:56.117Z,95966.41
2024-02-09T13:43:46.884Z,95958.09
2024-02-09T13:46:37.696Z,95962.53
2024-02-09T13:49:28.502Z,95960.97
2024-02-09T13:52:20.821Z,95963.28
2024-02-09T13:55:15.561Z,95968.25
2024-02-09T13:58:07.634Z,95959.19
2024-02-09T14:00:58.485Z,95961.84
2024-02-09T14:03:52.788Z,95962.59
2024-02-09T14:06:44.209Z,95974.03
2024-02-09T14:09:37.119Z,95967.31
2024-02-09T14:12:29.004Z,95970.44
2024-02-09T14:15:19.732Z,95972.56
2024-02-09T14:18:11.642Z,95974.66
2024-02-09T14:21:06.696Z,95963.00
2024-02-09T14:23:57.386Z,95969.22
2024-02-09T14:26:51.596Z,95971.28
2024-02-09T14:29:43.014Z,95969.75
2024-02-09T14:32:33.845Z,95967.16
2024-02-09T14:35:24.625Z,95962.47
2024-02-09T14:38:18.505Z,95956.25
2024-02-09T14:41:09.205Z,95958.03
2024-02-09T14:44:00.753Z,95955.72
2024-02-09T14:46:51.638Z,95946.63
2024-02-09T14:49:42.566Z,95957.03
2024-02-09T14:52:33.478Z,95950.53
2024-02-09T14:55:25.381Z,95954.44
2024-02-09T14:58:16.131Z,95950.31
2024-02-09T15:01:07.270Z,95954.66
2024-02-09T15:03:58.055Z,95945.84
2024-02-09T15:06:49.364Z,95942.22
2024-02-09T15:09:41.824Z,95943.78
2024-02-09T15:12:32.719Z,95936.78
2024-02-09T15:15:24.793Z,95934.19
2024-02-09T15:18:16.550Z,95947.16
2024-02-09T15:21:07.428Z,95948.44
2024-02-09T15:23:58.312Z,95950.25
2024-02-09T15:26:49.054Z,95948.41
2024-02-09T15:29:39.819Z,95961.09
2024-02-09T15:32:30.565Z,95963.91
2024-02-09T15:35:21.391Z,95951.19
2024-02-09T15:38:12.318Z,95947.28
2024-02-09T15:41:03.195Z,95949.88
2024-02-09T15:43:54.319Z,95954.72
2024-02-09T15:46:46.096Z,95959.00
2024-02-09T15:49:36.973Z,95950.94
2024-02-09T15:52:29.018Z,95954.22
2024-02-09T15:55:19.944Z,95954.91
2024-02-09T15:58:10.699Z,95953.25
2024-02-09T16:01:01.519Z,95953.38
2024-02-09T16:03:55.278Z,95956.09
2024-02-09T16:06:46.098Z,95951.06
2024-02-09T16:09:36.788Z,95955.84
2024-02-09T16:12:27.563Z,95968.09
2024-02-09T16:15:22.258Z,95968.53
2024-02-09T16:18:13.186Z,95975.19
2024-02-09T16:21:04.130Z,95970.28
2024-02-09T16:23:55.162Z,95973.91
2024-02-09T16:26:45.925Z,95965.88
2024-02-09T16:29:36.618Z,95979.75
2024-02-09T16:32:27.618Z,95974.56
2024-02-09T16:35:20.243Z,95967.25
2024-02-09T16:38:11.019Z,95982.91
2024-02-09T16:41:01.877Z,95977.47
2024-02-09T16:43:52.682Z,95979.25
2024-02-09T16:46:43.552Z,95982.09
2024-02-09T16:49:34.288Z,95975.13
2024-02-09T16:52:25.131Z,95982.91
2024-02-09T16:55:15.944Z,95975.16
2024-02-09T16:58:07.088Z,95988.31
2024-02-09T17:00:58.040Z,95993.47
2024-02-09T17:03:48.852Z,95980.31
2024-02-09T17:06:40.607Z,95983.16
2024-02-09T17:09:31.369Z,95983.72
2024-02-09T17:12:22.197Z,95993.22
2024-02-09T17:15:12.905Z,95993.78
2024-02-09T17:18:04.828Z,96003.03
2024-02-09T17:20:55.772Z,95993.47
2024-02-09T17:23:48.974Z,95995.81
2024-02-09T17:26:39.807Z,95993.22
2024-02-09T17:29:30.565Z,95992.16
2024-02-09T17:32:21.295Z,95985.91
2024-02-09T17:35:12.128Z,96001.19
2024-02-09T17:38:02.910Z,95997.56
2024-02-09T17:40:53.726Z,95992.97
2024-02-09T17:43:44.550Z,95994.03
2024-02-09T17:46:35.429Z,95988.63
2024-02-09T17:49:27.962Z,95988.38
2024-02-09T17:52:19.216Z,95980.09
2024-02-09T17:55:10.425Z,95975.97
2024-02-09T17:58:01.173Z,95975.88
2024-02-09T18:00:54.296Z,95974.03
2024-02-09T18:03:45.135Z,95973.00
2024-02-09T18:06:36.869Z,95977.94
2024-02-09T18:09:28.976Z,95978.25
2024-02-09T18:12:19.656Z,95978.00
2024-02-09T18:15:11.032Z,95975.97
2024-02-09T18:18:02.162Z,95978.31
2024-02-09T18:20:53.315Z,95973.91
2024-02-09T18:23:44.289Z,95975.72
2024-02-09T18:26:35.004Z,95977.53
2024-02-09T18:29:26.926Z,95978.56
2024-02-09T18:32:17.757Z,95988.63
2024-02-09T18:35:09.257Z,95989.41
2024-02-09T18:38:00.056Z,95980.09
2024-02-09T18:40:52.176Z,95986.03
2024-02-09T18:43:43.185Z,95984.25
2024-02-09T18:46:33.938Z,95993.00
2024-02-09T18:49:30.424Z,95987.59
2024-02-09T18:52:21.824Z,95984.00
2024-02-09T18:55:15.643Z,95982.22
2024-02-09T18:58:06.534Z,95976.78
2024-02-09T19:00:59.233Z,95970.38
2024-02-09T19:03:50.092Z,95978.91
2024-02-09T19:06:41.668Z,95970.13
2024-02-09T19:09:32.404Z,95973.50
2024-02-09T19:12:23.114Z,95976.53
2024-02-09T19:15:17.765Z,95969.31
2024-02-09T19:18:08.861Z,95960.53
2024-02-09T19:21:00.553Z,95961.31
2024-02-09T19:23:51.373Z,95960.53
2024-02-09T19:26:42.045Z,95973.97
2024-02-09T19:29:34.716Z,95968.03
2024-02-09T19:32:25.554Z,95962.34
2024-02-09T19:35:16.511Z,95967.25
2024-02-09T19:38:07.604Z,95965.22
2024-02-09T19:41:02.319Z,95959.50
2024-02-09T19:43:53.651Z,95965.44
2024-02-09T19:46:48.480Z,95953.56
2024-02-09T19:49:39.410Z,95962.34
2024-02-09T19:52:30.227Z,95955.06
2024-02-09T19:55:21.992Z,95959.94
2024-02-09T19:58:12.873Z,95959.63
2024-02-09T20:01:08.885Z,95957.78
2024-02-09T20:03:59.778Z,95965.94
2024-02-09T20:06:50.759Z,95964.34
2024-02-09T20:09:41.489Z,95967.38
2024-02-09T20:12:32.600Z,95964.25
2024-02-09T20:15:27.675Z,95967.31
2024-02-09T20:18:19.023Z,95978.66
2024-02-09T20:21:11.400Z,95975.00
2024-02-09T20:24:04.661Z,95973.13
2024-02-09T20:26:56.519Z,95972.81
2024-02-09T20:29:47.234Z,95968.94
2024-02-09T20:32:38.129Z,95967.59
2024-02-09T20:35:29.146Z,95966.28
2024-02-09T20:38:20.099Z,95970.66
2024-02-09T20:41:20.753Z,95969.09
2024-02-09T20:44:13.204Z,95968.03
2024-02-09T20:47:09.036Z,95967.72
2024-02-09T20:50:00.721Z,95967.72
2024-02-09T20:52:52.396Z,95965.69
2024-02-09T20:55:45.823Z,95972.41
2024-02-09T20:58:41.425Z,95978.34
2024-02-09T21:01:32.588Z,95973.69
2024-02-09T21:04:23.492Z,95982.72
2024-02-09T21:07:14.874Z,95981.94
2024-02-09T21:10:06.695Z,95995.50
2024-02-09T21:13:00.878Z,95986.94
2024-02-09T21:15:53.036Z,95994.38
2024-02-09T21:18:45.827Z,95985.84
2024-02-09T21:21:37.011Z,95984.84
2024-02-09T21:24:28.862Z,95977.88
2024-02-09T21:27:19.607Z,95972.72
2024-02-09T21:33:15.532Z,95978.69
2024-02-09T21:36:08.037Z,95967.81
2024-02-09T21:38:59.197Z,95975.78
2024-02-09T21:41:49.923Z,95960.53
2024-02-09T21:44:40.671Z,95962.13
2024-02-09T21:47:38.953Z,95956.97
2024-02-09T21:50:29.983Z,95946.88
2024-02-09T21:53:21.612Z,95948.16
2024-02-09T21:56:12.381Z,95951.66
2024-02-09T21:59:04.725Z,95955.00
2024-02-09T22:01:55.459Z,95951.13
2024-02-09T22:04:52.832Z,95960.88
2024-02-09T22:07:46.217Z,95956.75
2024-02-09T22:10:37.096Z,95963.47
2024-02-09T22:13:28.794Z,95965.00
2024-02-09T22:16:21.251Z,95963.47
2024-02-09T22:19:14.494Z,95970.66
2024-02-09T22:22:05.516Z,95967.53
2024-02-09T22:24:56.564Z,95965.09
2024-02-09T22:27:47.465Z,95969.94
2024-02-09T22:30:39.923Z,95973.78
2024-02-09T22:33:30.953Z,95972.44
2024-02-09T22:36:21.886Z,95963.94
2024-02-09T22:39:13.214Z,95967.53
2024-02-09T22:42:04.108Z,95967.75
2024-02-09T22:44:54.905Z,95965.09
2024-02-09T22:47:45.715Z,95969.59
2024-02-09T22:50:36.463Z,95966.94
2024-02-09T22:53:27.221Z,95969.44
2024-02-09T22:56:21.777Z,95972.50
2024-02-09T22:59:12.649Z,95977.19
2024-02-09T23:02:03.514Z,95965.63
2024-02-09T23:04:55.321Z,95958.75
2024-02-09T23:07:46.827Z,95957.81
2024-02-09T23:10:37.664Z,95953.78
2024-02-09T23:13:28.894Z,95950.22
2024-02-09T23:16:19.703Z,95952.78
2024-02-09T23:19:10.640Z,95947.38
2024-02-09T23:22:02.103Z,95948.72
2024-02-09T23:24:52.856Z,95938.19
2024-02-09T23:27:43.627Z,95938.50
2024-02-09T23:30:34.707Z,95927.16
2024-02-09T23:33:25.425Z,95935.66
2024-02-09T23:36:19.406Z,95934.66
2024-02-09T23:39:10.123Z,95934.66
2024-02-09T23:42:01.104Z,95938.56
2024-02-09T23:44:53.015Z,95929.78
2024-02-09T23:47:43.962Z,95940.66
2024-02-09T23:50:34.751Z,95941.75
2024-02-09T23:53:27.734Z,95940.72
2024-02-09T23:56:18.472Z,95939.72
2024-02-09T23:59:09.175Z,95941.03
